createdAt,value
2024-03-06T00:00:24.017Z,100192.87
2024-03-06T00:03:27.631Z,100191.81
2024-03-06T00:06:31.635Z,100196.47
2024-03-06T00:09:36.057Z,100197.47
2024-03-06T00:12:38.961Z,100203.56
2024-03-06T00:15:43.341Z,100204.06
2024-03-06T00:18:46.548Z,100205.53
2024-03-06T00:21:49.654Z,100202.78
2024-03-06T00:24:53.332Z,100191.59
2024-03-06T00:27:56.385Z,100191.25
2024-03-06T00:30:59.876Z,100195.41
2024-03-06T00:34:03.030Z,100182.34
2024-03-06T00:37:05.817Z,100188.41
2024-03-06T00:40:12.312Z,100194.94
2024-03-06T00:43:15.759Z,100193.84
2024-03-06T00:46:18.885Z,100204.53
2024-03-06T00:49:22.735Z,100203.41
2024-03-06T00:52:27.005Z,100206.37
2024-03-06T00:55:29.972Z,100200.78
2024-03-06T00:58:33.397Z,100206.13
2024-03-06T01:01:36.479Z,100205.12
2024-03-06T01:04:39.888Z,100205.31
2024-03-06T01:07:42.709Z,100201.47
2024-03-06T01:10:46.384Z,100198.88
2024-03-06T01:13:49.506Z,100189.03
2024-03-06T01:16:53.119Z,100195.81
2024-03-06T01:19:57.744Z,100193.94
2024-03-06T01:23:00.950Z,100196.94
2024-03-06T01:26:04.039Z,100198.56
2024-03-06T01:29:07.395Z,100195.91
2024-03-06T01:32:11.731Z,100189.63
2024-03-06T01:35:16.301Z,100197.19
2024-03-06T01:38:19.993Z,100187.19
2024-03-06T01:41:23.300Z,100179.94
2024-03-06T01:44:26.066Z,100190.47
2024-03-06T01:47:30.138Z,100195.94
2024-03-06T01:50:33.111Z,100197.66
2024-03-06T01:53:37.564Z,100192.16
2024-03-06T01:56:47.366Z,100190.59
2024-03-06T01:59:50.780Z,100200.13
2024-03-06T02:02:53.821Z,100192.13
2024-03-06T02:06:00.059Z,100196.81
2024-03-06T02:09:05.136Z,100196.19
2024-03-06T02:12:13.753Z,100197.59
2024-03-06T02:15:17.508Z,100200.06
2024-03-06T02:18:21.594Z,100198.91
2024-03-06T02:21:26.001Z,100205.19
2024-03-06T02:24:29.101Z,100203.37
2024-03-06T02:27:32.912Z,100206.16
2024-03-06T02:30:38.775Z,100210.22
2024-03-06T02:33:42.692Z,100215.88
2024-03-06T02:36:46.158Z,100209.41
2024-03-06T02:39:49.214Z,100220.56
2024-03-06T02:42:52.593Z,100229.09
2024-03-06T02:45:55.391Z,100228.13
2024-03-06T02:48:58.657Z,100223.94
2024-03-06T02:52:03.124Z,100227.81
2024-03-06T02:55:06.763Z,100219.44
2024-03-06T02:58:11.498Z,100220.06
2024-03-06T03:01:17.597Z,100224.41
2024-03-06T03:04:20.534Z,100218.16
2024-03-06T03:07:27.194Z,100230.06
2024-03-06T03:10:30.416Z,100219.44
2024-03-06T03:13:33.731Z,100224.41
2024-03-06T03:16:37.387Z,100232.47
2024-03-06T03:19:41.636Z,100232.00
2024-03-06T03:22:45.263Z,100228.78
2024-03-06T03:25:48.791Z,100221.19
2024-03-06T03:28:52.087Z,100238.47
2024-03-06T03:31:55.167Z,100236.97
2024-03-06T03:34:58.031Z,100243.75
2024-03-06T03:38:01.220Z,100240.37
2024-03-06T03:41:05.423Z,100237.16
2024-03-06T03:44:09.046Z,100231.00
2024-03-06T03:47:12.234Z,100251.97
2024-03-06T03:50:17.468Z,100242.97
2024-03-06T03:53:20.701Z,100254.72
2024-03-06T03:56:23.978Z,100252.31
2024-03-06T03:59:27.248Z,100248.28
2024-03-06T04:02:30.358Z,100252.31
2024-03-06T04:05:33.468Z,100251.03
2024-03-06T04:08:39.086Z,100257.78
2024-03-06T04:11:42.361Z,100243.59
2024-03-06T04:14:46.019Z,100256.31
2024-03-06T04:17:49.210Z,100257.44
2024-03-06T04:20:52.117Z,100260.69
2024-03-06T04:23:55.921Z,100258.72
2024-03-06T04:26:58.647Z,100263.75
2024-03-06T04:30:02.092Z,100271.13
2024-03-06T04:33:07.915Z,100267.59
2024-03-06T04:36:11.772Z,100260.19
2024-03-06T04:39:14.936Z,100249.88
2024-03-06T04:42:18.850Z,100258.09
2024-03-06T04:45:21.973Z,100268.59
2024-03-06T04:48:25.150Z,100266.16
2024-03-06T04:51:28.021Z,100262.75
2024-03-06T04:54:31.316Z,100265.66
2024-03-06T04:57:37.017Z,100261.78
2024-03-06T05:00:40.789Z,100260.31
2024-03-06T06:00:42.457Z,100297.25
2024-03-06T06:03:46.167Z,100310.31
2024-03-06T06:06:49.848Z,100307.75
2024-03-06T06:09:53.126Z,100308.88
2024-03-06T06:12:56.100Z,100310.47
2024-03-06T06:16:05.879Z,100305.16
2024-03-06T06:19:08.901Z,100307.91
2024-03-06T06:22:13.810Z,100304.81
2024-03-06T06:25:17.535Z,100313.22
2024-03-06T06:28:20.801Z,100312.69
2024-03-06T06:31:23.789Z,100316.22
2024-03-06T06:34:29.875Z,100310.34
2024-03-06T06:37:32.862Z,100319.34
2024-03-06T06:40:35.926Z,100318.00
2024-03-06T06:43:38.716Z,100311.94
2024-03-06T06:46:44.176Z,100308.22
2024-03-06T06:49:47.220Z,100305.84
2024-03-06T06:52:51.455Z,100308.22
2024-03-06T06:55:54.224Z,100305.06
2024-03-06T06:58:58.912Z,100316.56
2024-03-06T07:02:03.761Z,100315.88
2024-03-06T07:05:07.978Z,100324.00
2024-03-06T07:08:11.352Z,100317.75
2024-03-06T07:11:14.922Z,100316.47
2024-03-06T07:14:17.834Z,100318.75
2024-03-06T07:17:21.186Z,100318.94
2024-03-06T07:20:24.267Z,100334.38
2024-03-06T07:23:27.559Z,100323.72
2024-03-06T07:26:31.493Z,100329.84
2024-03-06T07:29:35.594Z,100332.34
2024-03-06T07:32:38.680Z,100334.44
2024-03-06T07:35:43.093Z,100330.25
2024-03-06T07:38:46.050Z,100334.34
2024-03-06T07:41:49.406Z,100334.66
2024-03-06T07:44:53.786Z,100337.00
2024-03-06T07:47:59.441Z,100338.47
2024-03-06T07:51:02.540Z,100340.66
2024-03-06T07:54:06.464Z,100337.47
2024-03-06T07:57:11.238Z,100339.44
2024-03-06T08:00:21.193Z,100334.47
2024-03-06T08:03:25.943Z,100335.84
2024-03-06T08:06:30.780Z,100330.75
2024-03-06T08:09:34.356Z,100335.50
2024-03-06T08:12:37.774Z,100337.03
2024-03-06T08:15:41.418Z,100332.94
2024-03-06T08:18:44.266Z,100334.72
2024-03-06T08:21:47.592Z,100337.31
2024-03-06T08:24:53.160Z,100339.06
2024-03-06T08:27:56.604Z,100333.91
2024-03-06T08:30:59.716Z,100330.69
2024-03-06T08:34:03.200Z,100340.47
2024-03-06T08:37:07.161Z,100329.06
2024-03-06T08:40:16.776Z,100334.88
2024-03-06T08:43:20.861Z,100339.91
2024-03-06T08:46:25.310Z,100340.78
2024-03-06T08:49:28.422Z,100346.38
2024-03-06T08:52:34.528Z,100343.06
2024-03-06T08:55:37.577Z,100339.44
2024-03-06T08:58:41.585Z,100348.66
2024-03-06T09:01:44.724Z,100348.34
2024-03-06T09:04:48.706Z,100358.31
2024-03-06T09:07:51.898Z,100347.56
2024-03-06T09:10:55.767Z,100354.75
2024-03-06T09:13:58.980Z,100349.56
2024-03-06T09:17:02.764Z,100353.16
2024-03-06T09:20:12.139Z,100347.94
2024-03-06T09:23:17.565Z,100349.50
2024-03-06T09:26:21.897Z,100348.72
2024-03-06T09:29:25.373Z,100359.16
2024-03-06T09:32:28.428Z,100351.94
2024-03-06T09:35:34.234Z,100353.06
2024-03-06T09:38:38.960Z,100350.34
2024-03-06T09:41:42.617Z,100355.94
2024-03-06T09:44:46.363Z,100338.19
2024-03-06T09:47:54.664Z,100343.78
2024-03-06T09:51:04.759Z,100347.62
2024-03-06T09:54:10.964Z,100341.97
2024-03-06T09:57:15.166Z,100332.06
2024-03-06T10:00:21.147Z,100329.16
2024-03-06T10:03:24.742Z,100323.25
2024-03-06T10:06:28.227Z,100321.47
2024-03-06T10:09:34.642Z,100320.28
2024-03-06T10:12:37.991Z,100314.44
2024-03-06T10:15:41.415Z,100315.97
2024-03-06T10:18:44.371Z,100314.22
2024-03-06T10:21:52.834Z,100310.19
2024-03-06T10:24:58.598Z,100308.16
2024-03-06T10:28:13.228Z,100314.75
2024-03-06T10:31:16.112Z,100304.84
2024-03-06T10:34:19.492Z,100306.66
2024-03-06T10:37:23.646Z,100309.59
2024-03-06T10:40:30.742Z,100311.37
2024-03-06T10:43:33.949Z,100303.12
2024-03-06T10:46:38.554Z,100295.59
2024-03-06T10:49:44.190Z,100300.09
2024-03-06T10:52:48.698Z,100297.03
2024-03-06T10:55:53.081Z,100296.16
2024-03-06T10:58:59.484Z,100292.84
2024-03-06T11:02:03.406Z,100301.81
2024-03-06T11:05:08.579Z,100289.25
2024-03-06T11:08:16.718Z,100280.97
2024-03-06T11:11:26.983Z,100279.84
2024-03-06T11:14:32.887Z,100274.72
2024-03-06T11:17:36.275Z,100283.94
2024-03-06T11:20:39.078Z,100283.91
2024-03-06T11:24:13.219Z,100265.44
2024-03-06T11:27:16.581Z,100272.25
2024-03-06T11:30:22.647Z,100261.69
2024-03-06T11:33:29.871Z,100259.66
2024-03-06T11:36:35.707Z,100257.53
2024-03-06T11:39:40.825Z,100248.03
2024-03-06T11:42:43.897Z,100260.91
2024-03-06T11:45:47.832Z,100255.19
2024-03-06T11:48:57.593Z,100255.34
2024-03-06T11:52:06.315Z,100252.66
2024-03-06T11:55:10.649Z,100256.12
2024-03-06T11:58:13.916Z,100246.03
2024-03-06T12:01:20.130Z,100250.59
2024-03-06T12:04:25.501Z,100242.34
2024-03-06T12:07:28.961Z,100240.28
2024-03-06T12:10:32.110Z,100234.50
2024-03-06T12:13:36.279Z,100237.81
2024-03-06T12:16:39.465Z,100231.03
2024-03-06T12:19:45.282Z,100220.63
2024-03-06T12:22:53.129Z,100206.59
2024-03-06T12:26:12.881Z,100208.41
2024-03-06T12:29:20.665Z,100201.06
2024-03-06T12:32:28.357Z,100200.44
2024-03-06T12:35:32.238Z,100210.53
2024-03-06T12:38:35.346Z,100210.06
2024-03-06T12:41:39.197Z,100214.59
2024-03-06T12:44:42.374Z,100209.50
2024-03-06T12:47:50.039Z,100198.50
2024-03-06T12:50:55.569Z,100201.00
2024-03-06T12:53:58.749Z,100189.78
2024-03-06T12:57:01.734Z,100183.56
2024-03-06T13:00:08.252Z,100194.72
2024-03-06T13:03:11.850Z,100187.94
2024-03-06T13:06:15.198Z,100187.47
2024-03-06T13:09:18.576Z,100183.34
2024-03-06T13:12:21.955Z,100187.69
2024-03-06T13:15:24.830Z,100193.06
2024-03-06T13:18:28.484Z,100191.28
2024-03-06T13:21:31.409Z,100185.28
2024-03-06T13:24:35.118Z,100187.75
2024-03-06T13:27:38.394Z,100185.00
2024-03-06T13:30:41.580Z,100178.09
2024-03-06T13:33:44.650Z,100180.69
2024-03-06T13:36:48.273Z,100180.16
2024-03-06T13:39:51.938Z,100174.41
2024-03-06T13:42:55.343Z,100176.78
2024-03-06T13:45:58.829Z,100174.00
2024-03-06T13:49:02.166Z,100174.44
2024-03-06T13:52:06.644Z,100170.06
2024-03-06T13:55:10.644Z,100162.47
2024-03-06T13:58:14.042Z,100165.72
2024-03-06T14:01:17.468Z,100157.31
2024-03-06T14:04:21.008Z,100158.13
2024-03-06T14:07:24.548Z,100148.09
2024-03-06T14:10:28.116Z,100156.06
2024-03-06T14:13:31.004Z,100154.09
2024-03-06T14:16:34.321Z,100149.31
2024-03-06T14:19:37.310Z,100146.88
2024-03-06T14:22:40.413Z,100133.28
2024-03-06T14:25:43.496Z,100142.13
2024-03-06T14:28:46.563Z,100128.53
2024-03-06T14:31:49.387Z,100134.97
2024-03-06T14:34:52.681Z,100131.00
2024-03-06T14:37:55.748Z,100131.31
2024-03-06T14:40:58.952Z,100131.69
2024-03-06T14:44:01.990Z,100127.34
2024-03-06T14:47:07.477Z,100122.50
2024-03-06T14:50:13.478Z,100120.12
2024-03-06T14:53:17.182Z,100115.81
2024-03-06T14:56:23.084Z,100121.44
2024-03-06T14:59:26.559Z,100122.25
2024-03-06T15:02:30.621Z,100121.03
2024-03-06T15:05:34.167Z,100126.69
2024-03-06T15:08:37.484Z,100124.28
2024-03-06T15:11:41.670Z,100118.31
2024-03-06T15:14:47.213Z,100127.84
2024-03-06T15:17:53.593Z,100129.44
2024-03-06T15:20:56.434Z,100127.00
2024-03-06T15:24:00.520Z,100132.50
2024-03-06T15:27:05.764Z,100131.72
2024-03-06T15:30:09.942Z,100122.91
2024-03-06T15:33:13.553Z,100124.03
2024-03-06T15:36:17.859Z,100121.56
2024-03-06T15:39:20.913Z,100124.25
2024-03-06T15:42:25.377Z,100121.06
2024-03-06T15:45:28.429Z,100124.56
2024-03-06T15:48:33.982Z,100122.50
2024-03-06T15:51:38.445Z,100125.22
2024-03-06T15:54:41.749Z,100121.97
2024-03-06T15:57:45.354Z,100124.72
2024-03-06T16:00:48.459Z,100125.44
2024-03-06T16:03:53.920Z,100118.25
2024-03-06T16:07:00.243Z,100120.97
2024-03-06T16:10:04.278Z,100133.62
2024-03-06T16:13:08.391Z,100125.22
2024-03-06T16:16:11.555Z,100135.37
2024-03-06T16:19:14.707Z,100138.66
2024-03-06T16:22:18.095Z,100150.41
2024-03-06T16:25:21.204Z,100149.88
2024-03-06T16:28:25.093Z,100152.09
2024-03-06T16:31:28.474Z,100159.88
2024-03-06T16:34:34.029Z,100161.28
2024-03-06T16:37:37.028Z,100157.19
2024-03-06T16:40:40.742Z,100164.94
2024-03-06T16:43:43.846Z,100163.22
2024-03-06T16:46:46.970Z,100162.19
2024-03-06T16:49:50.100Z,100162.47
2024-03-06T16:52:53.809Z,100172.63
2024-03-06T16:55:56.701Z,100171.28
2024-03-06T16:59:00.137Z,100172.37
2024-03-06T17:02:03.373Z,100190.84
2024-03-06T17:05:08.279Z,100191.28
2024-03-06T17:08:13.285Z,100184.50
2024-03-06T17:11:18.740Z,100190.78
2024-03-06T17:14:21.805Z,100189.87
2024-03-06T17:17:25.246Z,100195.81
2024-03-06T17:20:28.230Z,100194.59
2024-03-06T17:23:33.418Z,100207.09
2024-03-06T17:26:39.698Z,100203.09
2024-03-06T17:29:43.978Z,100215.81
2024-03-06T17:32:46.989Z,100208.03
2024-03-06T17:35:50.913Z,100210.03
2024-03-06T17:38:54.128Z,100213.03
2024-03-06T17:41:57.568Z,100209.38
2024-03-06T17:45:01.744Z,100219.56
2024-03-06T17:48:05.596Z,100221.44
2024-03-06T17:51:08.795Z,100219.16
2024-03-06T17:54:16.261Z,100217.41
2024-03-06T17:57:19.146Z,100228.75
2024-03-06T18:00:22.520Z,100230.81
2024-03-06T18:03:27.716Z,100228.69
2024-03-06T18:06:30.801Z,100227.66
2024-03-06T18:09:34.135Z,100229.91
2024-03-06T18:12:37.100Z,100240.16
2024-03-06T18:15:41.333Z,100239.56
2024-03-06T18:18:44.257Z,100254.03
2024-03-06T18:21:48.439Z,100251.28
2024-03-06T18:24:51.885Z,100253.22
2024-03-06T18:27:55.248Z,100261.31
2024-03-06T18:31:00.340Z,100251.16
2024-03-06T18:34:04.518Z,100259.19
2024-03-06T18:37:08.224Z,100264.81
2024-03-06T18:40:14.057Z,100266.25
2024-03-06T18:43:17.335Z,100272.03
2024-03-06T18:46:20.864Z,100262.06
2024-03-06T18:49:23.750Z,100264.75
2024-03-06T18:52:26.883Z,100266.72
2024-03-06T18:55:30.420Z,100269.66
2024-03-06T18:58:34.553Z,100271.72
2024-03-06T19:01:40.417Z,100272.78
2024-03-06T19:04:44.328Z,100273.53
2024-03-06T19:07:48.716Z,100268.69
2024-03-06T19:10:53.089Z,100276.09
2024-03-06T19:13:56.130Z,100272.78
2024-03-06T19:16:59.361Z,100273.59
2024-03-06T19:20:02.546Z,100285.19
2024-03-06T19:23:07.450Z,100280.91
2024-03-06T19:26:10.774Z,100281.88
2024-03-06T19:29:14.209Z,100275.56
2024-03-06T19:32:17.682Z,100278.06
2024-03-06T19:35:23.936Z,100278.97
2024-03-06T19:38:28.341Z,100274.03
2024-03-06T19:41:31.901Z,100277.94
2024-03-06T19:44:35.322Z,100290.53
2024-03-06T19:47:40.203Z,100295.19
2024-03-06T19:50:43.629Z,100291.97
2024-03-06T19:53:49.408Z,100285.84
2024-03-06T19:56:53.787Z,100296.03
2024-03-06T20:00:02.902Z,100288.13
2024-03-06T20:03:15.343Z,100298.03
2024-03-06T20:06:19.246Z,100302.41
2024-03-06T20:09:23.502Z,100288.66
2024-03-06T20:12:28.025Z,100288.66
2024-03-06T20:15:38.640Z,100296.31
2024-03-06T20:18:43.028Z,100291.84
2024-03-06T20:21:49.156Z,100293.91
2024-03-06T20:24:53.023Z,100303.78
2024-03-06T20:27:56.554Z,100301.13
2024-03-06T20:31:03.090Z,100293.47
2024-03-06T20:34:08.320Z,100288.16
2024-03-06T20:37:12.272Z,100288.88
2024-03-06T20:40:16.015Z,100301.50
2024-03-06T20:43:23.103Z,100301.72
2024-03-06T20:46:26.724Z,100298.63
2024-03-06T20:49:30.645Z,100299.84
2024-03-06T20:52:34.091Z,100300.53
2024-03-06T20:55:37.977Z,100304.59
2024-03-06T20:58:41.226Z,100297.41
2024-03-06T21:01:46.917Z,100298.66
2024-03-06T21:04:50.245Z,100296.22
2024-03-06T21:07:53.806Z,100300.50
2024-03-06T21:10:58.059Z,100308.41
2024-03-06T21:14:01.920Z,100294.25
2024-03-06T21:17:08.807Z,100306.59
2024-03-06T21:20:12.994Z,100304.56
2024-03-06T21:23:16.005Z,100302.66
2024-03-06T21:26:19.577Z,100298.81
2024-03-06T21:29:23.120Z,100310.41
2024-03-06T21:32:26.627Z,100302.44
2024-03-06T21:35:30.241Z,100303.88
2024-03-06T21:38:34.015Z,100307.63
2024-03-06T21:41:40.342Z,100304.06
2024-03-06T21:44:44.318Z,100320.03
2024-03-06T21:47:47.240Z,100309.09
2024-03-06T21:50:51.919Z,100318.06
2024-03-06T21:53:54.857Z,100309.16
2024-03-06T21:56:57.915Z,100322.69
2024-03-06T22:00:01.261Z,100327.53
2024-03-06T22:03:06.342Z,100322.28
2024-03-06T22:06:09.840Z,100317.28
2024-03-06T22:09:12.837Z,100324.44
2024-03-06T22:12:16.411Z,100327.25
2024-03-06T22:15:19.642Z,100319.84
2024-03-06T22:18:23.409Z,100323.84
2024-03-06T22:21:26.227Z,100319.81
2024-03-06T22:24:29.648Z,100318.41
2024-03-06T22:27:32.509Z,100326.97
2024-03-06T22:30:35.812Z,100324.87
2024-03-06T22:33:38.725Z,100332.47
2024-03-06T22:36:42.810Z,100331.34
2024-03-06T22:39:46.538Z,100328.13
2024-03-06T22:42:49.885Z,100328.47
2024-03-06T22:45:52.732Z,100329.41
2024-03-06T22:48:57.365Z,100329.91
2024-03-06T22:52:01.054Z,100331.81
2024-03-06T22:55:07.904Z,100331.03
2024-03-06T22:58:10.975Z,100333.31
2024-03-06T23:01:14.075Z,100336.09
2024-03-06T23:04:19.217Z,100335.31
2024-03-06T23:07:23.390Z,100333.53
2024-03-06T23:10:27.301Z,100339.81
2024-03-06T23:13:30.668Z,100335.13
2024-03-06T23:16:33.942Z,100331.13
2024-03-06T23:19:37.055Z,100339.47
2024-03-06T23:22:40.056Z,100329.81
2024-03-06T23:25:43.618Z,100338.22
2024-03-06T23:28:46.409Z,100332.37
2024-03-06T23:31:49.454Z,100341.87
2024-03-06T23:34:52.226Z,100337.06
2024-03-06T23:37:55.421Z,100342.53
2024-03-06T23:40:58.304Z,100338.03
2024-03-06T23:44:01.820Z,100349.19
2024-03-06T23:47:04.870Z,100340.12
2024-03-06T23:50:09.292Z,100342.06
2024-03-06T23:53:12.585Z,100343.03
2024-03-06T23:56:16.585Z,100341.91
2024-03-06T23:59:20.325Z,100344.34
